SE Lincoln WX Station Historical Data
 
Daily Summary for May 08, 2021 Units:  English    Metric   Both
Daily Weekly Monthly Yearly
  Current: High: Low: Average:
Temperature: 59.5 °F 59.5 °F 58.5 °F 59 °F
Dew Point: 39.7 °F 39.7 °F 36.7 °F 38.1 °F
Humidity: 47.8% 48% 44% 46%
Wind Speed: 4.4mph 4.4mph 2mph 3.6mph
Wind Gust: 9mph 11mph - -
WindEast - - ESE
Pressure: 29.95 in 29.97 in 29.95 in -
Precipitation: 0.00 in      
 
 
Tabular Data for May 08, 2021
Time Temperature Dew Point Pressure Wind Wind Speed Wind Gust Humidity Rainfall Rate (Hourly) solar
00:04 58.7 °F 36.8 °F 29.97 in East 3.5 mph 7 mph 44% 0.00 in 0 W/m2
00:09 58.6 °F 36.7 °F 29.96 in East 3.1 mph 7 mph 44% 0.00 in 0 W/m2
00:14 58.5 °F 36.9 °F 29.96 in East 3.8 mph 8 mph 44.4% 0.00 in 0 W/m2
00:19 58.5 °F 37.1 °F 29.96 in East 4.4 mph 9 mph 44.9% 0.00 in 0 W/m2
00:24 58.6 °F 36.9 °F 29.96 in ESE 3.3 mph 9 mph 44.3% 0.00 in 0 W/m2
00:29 58.7 °F 37.4 °F 29.96 in East 3.4 mph 7 mph 45% 0.00 in 0 W/m2
00:34 58.7 °F 37.4 °F 29.96 in ESE 2 mph 6 mph 45% 0.00 in 0 W/m2
00:39 58.7 °F 37.5 °F 29.96 in ESE 3.8 mph 6 mph 45% 0.00 in 0 W/m2
00:44 58.8 °F 37.5 °F 29.96 in ESE 3.5 mph 8 mph 45% 0.00 in 0 W/m2
00:49 58.9 °F 37.6 °F 29.96 in East 3.9 mph 8 mph 45% 0.00 in 0 W/m2
00:54 58.9 °F 37.7 °F 29.96 in ESE 4 mph 8 mph 45.2% 0.00 in 0 W/m2
00:59 59 °F 37.9 °F 29.96 in ESE 4.2 mph 8 mph 45.2% 0.00 in 0 W/m2
01:04 59.1 °F 38.4 °F 29.96 in ESE 4 mph 7 mph 46% 0.00 in 0 W/m2
01:09 59.2 °F 38.4 °F 29.96 in ESE 2.7 mph 7 mph 46% 0.00 in 0 W/m2
01:14 59.2 °F 38.8 °F 29.96 in ESE 3.6 mph 7 mph 46.6% 0.00 in 0 W/m2
01:19 59.2 °F 39 °F 29.96 in East 4 mph 9 mph 47% 0.00 in 0 W/m2
01:24 59.3 °F 39.1 °F 29.96 in East 3 mph 7 mph 47% 0.00 in 0 W/m2
01:29 59.3 °F 39.6 °F 29.95 in ESE 3.1 mph 6 mph 47.8% 0.00 in 0 W/m2
01:34 59.4 °F 39.7 °F 29.95 in ESE 3.3 mph 8 mph 48% 0.00 in 0 W/m2
01:39 59.4 °F 39.7 °F 29.95 in East 3.9 mph 11 mph 48% 0.00 in 0 W/m2
01:44 59.5 °F 39.7 °F 29.95 in East 4.4 mph 9 mph 47.8% 0.00 in 0 W/m2
66th and South
Compliments of Weather Underground - 12.49 mb